Time;durP1;ratioP1;P1;durP2;ratioP2;P2;SDS_P1;SDS_P2;PMS_P1;PMS_P2;Temp;Humidity;BMP_temperature;BMP_pressure;BME280_temperature;BME280_humidity;BME280_pressure;Samples;Min_cycle;Max_cycle;Signal;HPM_P1;HPM_P2
2022/08/28 00:00:43;;;;;;;5.55;3.42;;;13.70;99.90;;;;;;5130588;27;20042;-79
2022/08/28 00:03:12;;;;;;;6.75;3.20;;;13.60;99.90;;;;;;5128981;27;20122;-76
2022/08/28 00:05:38;;;;;;;3.95;2.97;;;13.60;99.90;;;;;;5120386;27;20047;-77
2022/08/28 00:08:05;;;;;;;5.65;3.22;;;13.60;99.90;;;;;;5130602;27;20588;-77
2022/08/28 00:10:31;;;;;;;5.45;3.78;;;13.60;99.90;;;;;;5136718;27;20756;-76
2022/08/28 00:12:57;;;;;;;6.53;3.30;;;13.60;99.90;;;;;;5136703;27;20490;-76
2022/08/28 00:15:27;;;;;;;5.40;3.47;;;13.60;99.90;;;;;;5103619;27;20049;-76
2022/08/28 00:17:53;;;;;;;5.88;3.13;;;13.60;99.90;;;;;;5131118;27;20051;-76
2022/08/28 00:20:20;;;;;;;5.18;3.38;;;13.60;99.90;;;;;;5119585;27;20047;-77
2022/08/28 00:22:47;;;;;;;6.15;3.55;;;13.60;99.90;;;;;;5128169;27;20051;-75
2022/08/28 00:25:14;;;;;;;5.75;3.90;;;13.60;99.90;;;;;;5130238;27;20043;-76
2022/08/28 00:27:51;;;;;;;7.30;3.67;;;13.60;99.90;;;;;;5132377;27;20595;-77
2022/08/28 00:30:25;;;;;;;5.88;2.97;;;13.60;99.90;;;;;;5126053;27;20470;-77
2022/08/28 00:32:57;;;;;;;5.55;3.42;;;13.60;99.90;;;;;;5100434;27;20090;-77
2022/08/28 00:35:24;;;;;;;7.25;3.53;;;13.60;99.90;;;;;;5125088;27;20076;-77
2022/08/28 00:37:50;;;;;;;6.20;3.90;;;13.60;99.90;;;;;;5130820;27;20098;-78
2022/08/28 00:40:18;;;;;;;6.97;3.03;;;13.60;99.90;;;;;;5124349;27;20047;-76
2022/08/28 00:42:45;;;;;;;8.85;3.65;;;13.60;99.90;;;;;;5115984;27;20438;-76
2022/08/28 00:45:16;;;;;;;5.65;3.60;;;13.60;99.90;;;;;;5132593;27;20111;-78
2022/08/28 00:47:41;;;;;;;5.65;2.75;;;13.60;99.90;;;;;;5135100;27;20038;-77
2022/08/28 00:50:11;;;;;;;8.50;2.90;;;13.60;99.90;;;;;;5135181;27;20061;-77
2022/08/28 00:52:37;;;;;;;7.55;3.10;;;13.60;99.90;;;;;;5136583;27;20045;-76
2022/08/28 00:55:12;;;;;;;6.90;3.25;;;13.60;99.90;;;;;;5131755;27;20046;-76
2022/08/28 00:57:43;;;;;;;6.78;3.60;;;13.60;99.90;;;;;;5132804;27;20099;-76
2022/08/28 01:00:19;;;;;;;4.72;3.28;;;13.60;99.90;;;;;;5126332;27;20053;-77
2022/08/28 01:02:44;;;;;;;15.38;3.42;;;13.60;99.90;;;;;;5129594;27;20062;-76
2022/08/28 01:05:12;;;;;;;6.25;3.30;;;13.60;99.90;;;;;;5137403;27;20074;-77
2022/08/28 01:07:39;;;;;;;7.20;3.47;;;13.50;99.90;;;;;;5137333;27;20046;-77
2022/08/28 01:10:08;;;;;;;8.80;3.72;;;13.50;99.90;;;;;;5134066;27;20153;-76
2022/08/28 01:12:34;;;;;;;5.88;3.22;;;13.50;99.90;;;;;;5126266;27;20126;-76
2022/08/28 01:15:08;;;;;;;7.13;3.03;;;13.40;99.90;;;;;;5129296;27;20193;-75
2022/08/28 01:17:34;;;;;;;6.03;2.90;;;13.40;99.90;;;;;;5114426;27;20050;-76
2022/08/28 01:20:08;;;;;;;7.07;3.67;;;13.40;99.90;;;;;;5122733;27;20050;-76
2022/08/28 01:22:38;;;;;;;5.18;2.88;;;13.30;99.90;;;;;;5130096;27;20078;-76
2022/08/28 01:25:12;;;;;;;10.65;2.75;;;13.30;99.90;;;;;;5127450;27;20042;-76
2022/08/28 01:27:40;;;;;;;;;;;13.30;99.90;;;;;;5128426;27;20054;-77
2022/08/28 01:30:11;;;;;;;5.20;2.95;;;13.30;99.90;;;;;;5136745;27;20000;-75
2022/08/28 01:32:49;;;;;;;6.78;2.75;;;13.20;99.90;;;;;;5123901;27;20047;-77
2022/08/28 01:35:21;;;;;;;8.65;3.08;;;13.20;99.90;;;;;;5130957;27;20054;-76
2022/08/28 01:37:48;;;;;;;5.35;3.22;;;13.20;99.90;;;;;;5128645;27;20193;-76
2022/08/28 01:40:19;;;;;;;5.47;2.67;;;13.10;99.90;;;;;;5140744;27;20050;-76
2022/08/28 01:42:45;;;;;;;6.47;2.80;;;13.10;99.90;;;;;;5140829;27;20131;-76
2022/08/28 01:45:14;;;;;;;5.68;2.83;;;13.10;99.90;;;;;;5111718;27;20047;-77
2022/08/28 01:47:42;;;;;;;8.40;2.78;;;13.10;99.90;;;;;;5116225;27;20951;-76
2022/08/28 01:50:09;;;;;;;5.40;3.13;;;13.10;99.90;;;;;;5128870;27;20105;-77
2022/08/28 01:52:35;;;;;;;5.75;3.30;;;13.20;99.90;;;;;;5134148;27;20039;-75
2022/08/28 01:55:05;;;;;;;4.40;3.13;;;13.10;99.90;;;;;;5120509;27;20043;-77
2022/08/28 01:57:31;;;;;;;4.10;2.83;;;13.10;99.90;;;;;;5141522;27;20054;-77
2022/08/28 01:59:57;;;;;;;8.02;4.25;;;13.10;99.90;;;;;;5137525;27;20042;-77
2022/08/28 02:02:22;;;;;;;7.18;3.53;;;13.10;99.90;;;;;;5135837;27;20066;-76
2022/08/28 02:04:48;;;;;;;5.70;2.88;;;13.00;99.90;;;;;;5123605;27;20850;-76
2022/08/28 02:07:15;;;;;;;7.95;3.63;;;13.00;99.90;;;;;;5126184;27;20046;-76
2022/08/28 02:09:41;;;;;;;4.15;3.03;;;13.00;99.90;;;;;;5127246;27;20047;-76
2022/08/28 02:12:07;;;;;;;4.78;3.28;;;13.00;99.90;;;;;;5128578;27;20043;-76
2022/08/28 02:14:33;;;;;;;6.15;2.78;;;13.00;99.90;;;;;;5134046;27;20035;-77
2022/08/28 02:16:58;;;;;;;5.40;2.75;;;12.90;99.90;;;;;;5110568;27;20051;-76
2022/08/28 02:19:24;;;;;;;5.13;3.00;;;12.90;99.90;;;;;;5136127;27;20115;-76
2022/08/28 02:21:50;;;;;;;6.75;3.75;;;12.90;99.90;;;;;;5124283;27;20043;-76
2022/08/28 02:24:16;;;;;;;7.45;2.78;;;12.90;99.90;;;;;;5120519;27;20155;-76
2022/08/28 02:26:43;;;;;;;5.40;3.13;;;12.90;99.90;;;;;;5131315;27;20614;-76
2022/08/28 02:29:10;;;;;;;8.88;3.50;;;12.80;99.90;;;;;;5134252;27;20129;-76
2022/08/28 02:31:36;;;;;;;6.47;2.83;;;12.90;99.90;;;;;;5126052;27;20145;-76
2022/08/28 02:34:02;;;;;;;7.13;2.67;;;12.90;99.90;;;;;;5127521;27;20058;-77
2022/08/28 02:36:28;;;;;;;5.88;3.00;;;13.00;99.90;;;;;;5130587;27;20043;-77
2022/08/28 02:38:53;;;;;;;4.70;3.00;;;12.90;99.90;;;;;;5136793;27;20080;-76
2022/08/28 02:41:19;;;;;;;6.70;2.60;;;13.00;99.90;;;;;;5131247;27;20050;-76
2022/08/28 02:43:45;;;;;;;6.00;2.42;;;13.00;99.90;;;;;;5128018;27;20039;-75
2022/08/28 02:46:11;;;;;;;6.45;3.35;;;12.90;99.90;;;;;;5138372;27;20581;-75
2022/08/28 02:48:39;;;;;;;7.97;3.10;;;12.90;99.90;;;;;;5138614;27;20039;-75
2022/08/28 02:51:08;;;;;;;5.30;2.65;;;12.90;99.90;;;;;;5127434;27;20039;-75
2022/08/28 02:53:34;;;;;;;4.20;2.78;;;12.80;99.90;;;;;;5133975;27;20167;-76
2022/08/28 02:56:01;;;;;;;3.55;2.83;;;12.70;99.90;;;;;;5127633;27;20118;-75
2022/08/28 02:58:31;;;;;;;7.47;3.47;;;13.20;99.90;;;;;;5128990;27;20043;-76
2022/08/28 03:01:00;;;;;;;5.20;3.15;;;12.80;99.90;;;;;;5124529;27;20055;-77
2022/08/28 03:03:28;;;;;;;5.50;2.85;;;12.70;99.90;;;;;;5127342;27;20039;-76
2022/08/28 03:05:54;;;;;;;9.60;3.10;;;12.70;99.90;;;;;;5123175;27;20781;-76
2022/08/28 03:08:21;;;;;;;4.25;2.42;;;12.70;99.90;;;;;;5132777;27;20043;-76
2022/08/28 03:10:47;;;;;;;5.85;3.20;;;12.70;99.90;;;;;;5122855;27;20074;-75
2022/08/28 03:13:12;;;;;;;4.47;3.05;;;12.70;99.90;;;;;;5138331;27;20046;-77
2022/08/28 03:15:42;;;;;;;4.72;3.58;;;12.60;99.90;;;;;;5121341;27;20054;-76
2022/08/28 03:18:08;;;;;;;4.40;2.45;;;12.60;99.90;;;;;;5123467;27;20950;-76
2022/08/28 03:20:34;;;;;;;5.55;2.80;;;12.60;99.90;;;;;;5130530;27;20054;-76
2022/08/28 03:25:44;;;;;;;6.28;2.42;;;12.50;99.90;;;;;;5125763;27;20062;-76
2022/08/28 03:28:10;;;;;;;4.82;2.65;;;12.60;99.90;;;;;;5134329;27;20050;-76
2022/08/28 03:30:36;;;;;;;4.53;2.45;;;12.50;99.90;;;;;;5132766;27;20051;-76
2022/08/28 03:33:02;;;;;;;5.85;2.92;;;12.50;99.90;;;;;;5137032;27;20055;-77
2022/08/28 03:35:28;;;;;;;5.22;2.70;;;12.50;99.90;;;;;;5137809;27;20629;-76
2022/08/28 03:37:54;;;;;;;6.10;3.10;;;12.50;99.90;;;;;;5134499;27;20518;-76
2022/08/28 03:40:20;;;;;;;5.50;3.25;;;12.50;99.90;;;;;;5137076;27;20055;-76
2022/08/28 03:42:46;;;;;;;5.07;3.40;;;12.60;99.90;;;;;;5134178;27;20774;-76
2022/08/28 03:45:12;;;;;;;5.05;2.90;;;12.60;99.90;;;;;;5136762;27;20051;-76
2022/08/28 03:47:40;;;;;;;8.80;3.20;;;12.60;99.90;;;;;;5117568;27;20042;-76
2022/08/28 03:50:10;;;;;;;5.53;3.20;;;12.60;99.90;;;;;;5138246;27;20043;-77
2022/08/28 03:52:36;;;;;;;4.97;2.40;;;12.60;99.90;;;;;;5109451;27;20049;-77
2022/08/28 03:55:03;;;;;;;6.95;2.80;;;12.60;99.90;;;;;;5120718;27;20384;-77
2022/08/28 03:57:29;;;;;;;5.68;2.53;;;12.50;99.90;;;;;;5137539;27;20165;-76
2022/08/28 03:59:55;;;;;;;11.68;3.17;;;12.60;99.90;;;;;;5138859;27;20046;-76
2022/08/28 04:02:21;;;;;;;6.80;2.97;;;12.50;99.90;;;;;;5115571;27;20045;-76
2022/08/28 04:04:48;;;;;;;4.60;2.20;;;12.40;99.90;;;;;;5129833;27;20039;-77
2022/08/28 04:07:14;;;;;;;6.35;2.72;;;12.40;99.90;;;;;;5126745;27;20039;-77
2022/08/28 04:09:40;;;;;;;6.10;2.58;;;12.40;99.90;;;;;;5135296;27;20046;-77
2022/08/28 04:12:07;;;;;;;6.53;3.10;;;12.40;99.90;;;;;;5132985;27;20051;-76
2022/08/28 04:14:33;;;;;;;8.13;2.88;;;12.30;99.90;;;;;;5138493;27;20309;-77
2022/08/28 04:16:58;;;;;;;4.78;2.40;;;12.20;99.90;;;;;;5131124;27;20482;-77
2022/08/28 04:19:24;;;;;;;7.43;3.22;;;12.20;99.90;;;;;;5135125;27;20998;-77
2022/08/28 04:21:50;;;;;;;6.22;3.08;;;12.20;99.90;;;;;;5132068;27;20087;-77
2022/08/28 04:24:16;;;;;;;8.20;2.90;;;12.20;99.90;;;;;;5133669;27;20052;-76
2022/08/28 04:26:42;;;;;;;9.73;3.30;;;12.20;99.90;;;;;;5129501;27;20051;-77
2022/08/28 04:29:07;;;;;;;6.95;2.58;;;12.30;99.90;;;;;;5132586;27;20046;-77
2022/08/28 04:31:34;;;;;;;3.95;2.60;;;12.20;99.90;;;;;;5130089;27;20058;-76
2022/08/28 04:34:04;;;;;;;4.65;2.88;;;12.20;99.90;;;;;;5134932;27;20046;-77
2022/08/28 04:36:32;;;;;;;7.57;3.28;;;12.30;99.90;;;;;;5113868;27;20184;-76
2022/08/28 04:38:58;;;;;;;7.13;3.00;;;12.30;99.90;;;;;;5131399;27;20698;-77
2022/08/28 04:41:25;;;;;;;5.45;3.45;;;12.30;99.90;;;;;;5131926;27;20042;-78
2022/08/28 04:43:51;;;;;;;6.35;2.70;;;12.30;99.90;;;;;;5133097;27;20456;-77
2022/08/28 04:46:17;;;;;;;5.32;3.00;;;12.30;99.90;;;;;;5116889;27;20886;-77
2022/08/28 04:48:43;;;;;;;3.08;2.53;;;12.40;99.90;;;;;;5096927;27;20050;-78
2022/08/28 04:51:11;;;;;;;7.25;2.97;;;12.40;99.90;;;;;;5114731;27;20129;-77
2022/08/28 04:53:37;;;;;;;4.68;2.63;;;12.50;99.90;;;;;;5132797;27;20038;-77
2022/08/28 04:56:07;;;;;;;5.00;2.42;;;12.50;99.90;;;;;;5114371;27;20050;-78
2022/08/28 04:58:34;;;;;;;4.60;2.22;;;12.50;99.90;;;;;;5134009;27;20042;-76
2022/08/28 05:01:06;;;;;;;6.50;2.83;;;12.50;99.90;;;;;;5133206;27;20059;-77
2022/08/28 05:03:31;;;;;;;4.30;2.47;;;12.50;99.90;;;;;;5134559;27;20099;-77
2022/08/28 05:05:57;;;;;;;5.30;2.50;;;12.50;99.90;;;;;;5129401;27;20042;-77
2022/08/28 05:08:26;;;;;;;10.55;3.20;;;12.50;99.90;;;;;;5132836;27;20123;-78
2022/08/28 05:10:53;;;;;;;10.27;2.90;;;12.50;99.90;;;;;;5132023;27;20732;-76
2022/08/28 05:13:20;;;;;;;5.50;2.50;;;12.50;99.90;;;;;;5133232;27;20711;-77
2022/08/28 05:15:48;;;;;;;6.72;2.65;;;12.50;99.90;;;;;;5138530;27;20371;-76
2022/08/28 05:18:16;;;;;;;6.00;2.95;;;11.80;99.90;;;;;;5118188;27;20051;-77
2022/08/28 05:20:44;;;;;;;6.97;2.72;;;12.50;99.90;;;;;;5134583;27;20093;-77
2022/08/28 05:23:11;;;;;;;7.72;2.58;;;12.60;99.90;;;;;;5128407;27;20451;-77
2022/08/28 05:25:40;;;;;;;4.03;1.92;;;12.60;99.90;;;;;;5128759;27;20511;-77
2022/08/28 05:28:08;;;;;;;4.60;2.50;;;12.60;99.90;;;;;;5132128;27;20087;-77
2022/08/28 05:30:36;;;;;;;3.50;2.20;;;12.70;99.90;;;;;;5131341;27;20359;-76
2022/08/28 05:33:03;;;;;;;5.63;2.28;;;12.70;99.90;;;;;;5124517;27;20046;-77
2022/08/28 05:35:32;;;;;;;4.32;2.42;;;12.70;99.90;;;;;;5127045;27;20055;-77
2022/08/28 05:37:58;;;;;;;3.30;2.05;;;12.80;99.90;;;;;;5136119;27;20034;-77
2022/08/28 05:40:23;;;;;;;4.57;2.20;;;12.80;99.90;;;;;;5106360;27;20070;-77
2022/08/28 05:42:50;;;;;;;5.50;2.67;;;12.80;99.90;;;;;;5132366;27;20077;-77
2022/08/28 05:45:16;;;;;;;6.28;2.90;;;12.90;99.90;;;;;;5117016;27;20089;-76
2022/08/28 05:47:42;;;;;;;4.50;2.42;;;13.00;99.90;;;;;;5131887;27;20110;-77
2022/08/28 05:50:10;;;;;;;4.78;2.22;;;13.00;99.90;;;;;;5112183;27;20789;-77
2022/08/28 05:52:36;;;;;;;10.32;2.58;;;13.10;99.90;;;;;;5136321;27;20084;-77
2022/08/28 05:55:02;;;;;;;10.48;2.67;;;13.10;99.90;;;;;;5121022;27;20517;-77
2022/08/28 05:57:28;;;;;;;6.97;2.53;;;13.20;99.90;;;;;;5101371;27;20047;-77
2022/08/28 05:59:54;;;;;;;2.50;1.77;;;13.20;99.90;;;;;;5121457;27;20081;-77
2022/08/28 06:02:19;;;;;;;5.00;1.80;;;13.30;99.90;;;;;;5133134;27;20043;-77
2022/08/28 06:04:47;;;;;;;5.78;2.17;;;13.40;99.90;;;;;;5124606;27;20050;-77
2022/08/28 06:07:14;;;;;;;5.18;2.67;;;13.50;99.90;;;;;;5125129;27;20142;-77
2022/08/28 06:09:40;;;;;;;3.60;2.25;;;13.70;99.90;;;;;;5133923;27;20070;-77
2022/08/28 06:12:07;;;;;;;6.80;2.13;;;13.70;99.90;;;;;;5118934;27;20641;-77
2022/08/28 06:14:33;;;;;;;4.78;2.00;;;13.90;99.90;;;;;;5110287;27;20096;-77
2022/08/28 06:17:00;;;;;;;9.70;2.90;;;14.00;99.90;;;;;;5125927;27;20100;-77
2022/08/28 06:19:29;;;;;;;5.32;2.50;;;14.10;99.90;;;;;;5104898;27;20049;-77
2022/08/28 06:21:57;;;;;;;3.15;2.08;;;14.20;99.90;;;;;;5125586;27;20135;-77
2022/08/28 06:24:24;;;;;;;4.10;1.95;;;14.30;99.90;;;;;;5130404;27;20110;-77
2022/08/28 06:26:51;;;;;;;5.13;2.10;;;14.50;99.90;;;;;;5133100;27;20286;-76
2022/08/28 06:29:21;;;;;;;3.92;2.03;;;14.60;99.90;;;;;;5131696;27;20047;-77
2022/08/28 06:31:51;;;;;;;2.33;1.92;;;14.70;99.90;;;;;;5112047;27;20583;-77
2022/08/28 06:34:17;;;;;;;7.22;2.20;;;14.90;99.90;;;;;;5132256;27;20038;-77
2022/08/28 06:36:43;;;;;;;4.03;2.42;;;15.00;99.90;;;;;;5130323;27;20047;-76
2022/08/28 06:39:12;;;;;;;6.05;2.55;;;15.10;99.90;;;;;;5133977;27;20091;-76
2022/08/28 06:41:41;;;;;;;4.28;2.50;;;15.20;99.90;;;;;;5132135;27;20043;-77
2022/08/28 06:44:09;;;;;;;3.70;2.45;;;15.40;99.90;;;;;;5135315;27;20043;-77
2022/08/28 06:46:35;;;;;;;7.30;2.08;;;15.50;99.90;;;;;;5082279;27;20904;-77
2022/08/28 06:49:04;;;;;;;4.28;2.45;;;15.70;99.90;;;;;;5127657;27;20099;-78
2022/08/28 06:51:29;;;;;;;2.65;1.92;;;15.90;99.90;;;;;;5126788;27;20171;-76
2022/08/28 06:53:56;;;;;;;3.35;1.88;;;16.00;99.90;;;;;;5132296;27;20469;-77
2022/08/28 06:56:24;;;;;;;7.15;1.80;;;16.20;99.90;;;;;;5132811;27;21035;-77
2022/08/28 06:58:50;;;;;;;2.80;1.75;;;16.40;99.90;;;;;;5130130;27;20062;-79
2022/08/28 07:01:21;;;;;;;12.93;2.95;;;16.60;99.90;;;;;;5133544;27;20403;-78
2022/08/28 07:03:49;;;;;;;3.85;1.48;;;16.80;99.90;;;;;;5127505;27;20814;-79
2022/08/28 07:06:15;;;;;;;5.70;2.10;;;17.00;99.90;;;;;;5132542;27;20038;-80
2022/08/28 07:08:42;;;;;;;3.33;1.63;;;17.10;99.90;;;;;;5100620;27;20573;-79
2022/08/28 07:11:35;;;;;;;4.18;1.33;;;17.40;99.90;;;;;;5112762;27;20072;-80
2022/08/28 07:14:01;;;;;;;5.47;1.73;;;17.60;99.90;;;;;;5120391;27;20139;-78
2022/08/28 07:16:30;;;;;;;4.53;1.50;;;18.80;99.90;;;;;;5133606;27;20043;-78
2022/08/28 07:18:56;;;;;;;6.40;1.77;;;19.90;99.90;;;;;;5132611;27;20046;-77
2022/08/28 07:21:23;;;;;;;4.55;2.20;;;20.70;96.60;;;;;;5136549;27;20053;-78
2022/08/28 07:23:49;;;;;;;5.50;1.85;;;21.30;99.90;;;;;;5137045;27;20260;-80
2022/08/28 07:26:22;;;;;;;3.13;1.60;;;22.00;98.70;;;;;;5138875;27;20820;-81
2022/08/28 07:28:49;;;;;;;4.55;1.80;;;22.70;94.90;;;;;;5135152;27;20043;-79
2022/08/28 07:31:18;;;;;;;6.75;2.30;;;22.50;95.50;;;;;;5138920;27;20049;-80
2022/08/28 07:33:45;;;;;;;3.38;1.60;;;23.00;92.30;;;;;;5138412;27;20069;-79
2022/08/28 07:36:13;;;;;;;3.40;1.67;;;23.30;94.00;;;;;;5135943;27;20047;-78
2022/08/28 07:38:39;;;;;;;2.72;1.75;;;23.00;93.70;;;;;;5134658;27;20451;-82
2022/08/28 07:41:26;;;;;;;7.50;1.80;;;23.00;92.80;;;;;;5119602;27;20047;-79
2022/08/28 07:46:37;;;;;;;6.72;2.25;;;23.30;90.70;;;;;;5138950;27;20154;-80
2022/08/28 07:49:04;;;;;;;3.75;1.70;;;24.00;92.60;;;;;;5139163;27;20046;-81
2022/08/28 07:51:30;;;;;;;6.65;2.40;;;24.80;91.70;;;;;;5117085;27;20049;-79
2022/08/28 07:53:56;;;;;;;2.50;1.35;;;24.30;87.70;;;;;;5138086;27;20031;-84
2022/08/28 07:56:23;;;;;;;4.07;1.55;;;24.20;88.00;;;;;;5139485;27;20145;-82
2022/08/28 07:58:50;;;;;;;6.20;2.60;;;23.50;85.90;;;;;;5135416;27;20047;-83
2022/08/28 08:01:16;;;;;;;3.88;1.60;;;23.60;89.10;;;;;;5135137;27;20119;-82
2022/08/28 08:03:43;;;;;;;3.83;1.58;;;23.30;84.50;;;;;;5138303;27;21177;-81
2022/08/28 08:06:11;;;;;;;3.67;1.63;;;23.40;87.40;;;;;;5113258;27;20658;-81
2022/08/28 08:08:38;;;;;;;4.88;1.63;;;23.40;88.70;;;;;;5134366;27;20078;-81
2022/08/28 08:11:07;;;;;;;2.88;1.65;;;23.40;87.40;;;;;;5136461;27;20111;-79
2022/08/28 08:13:34;;;;;;;3.28;1.55;;;23.30;88.50;;;;;;5136862;27;20069;-81
2022/08/28 08:16:08;;;;;;;3.85;1.67;;;23.70;88.00;;;;;;5137915;27;20058;-80
2022/08/28 08:18:34;;;;;;;3.38;1.80;;;23.90;85.40;;;;;;5134975;27;20054;-79
2022/08/28 08:21:02;;;;;;;7.47;2.08;;;24.00;84.80;;;;;;5135474;27;20051;-80
2022/08/28 08:23:28;;;;;;;5.95;2.03;;;23.30;85.80;;;;;;5133881;27;20046;-82
2022/08/28 08:25:59;;;;;;;4.85;2.10;;;22.40;85.80;;;;;;5134538;27;20083;-81
2022/08/28 08:28:26;;;;;;;4.28;2.05;;;21.50;88.10;;;;;;5131842;27;20369;-76
2022/08/28 08:31:19;;;;;;;5.22;1.48;;;20.90;90.00;;;;;;5129784;27;20043;-72
2022/08/28 08:33:47;;;;;;;5.45;1.95;;;20.50;90.70;;;;;;5128896;27;20379;-75
2022/08/28 08:36:15;;;;;;;5.88;1.63;;;20.30;91.40;;;;;;5116371;27;20099;-76
2022/08/28 08:38:41;;;;;;;5.30;1.70;;;21.20;91.10;;;;;;5119347;27;20039;-75
2022/08/28 08:41:32;;;;;;;4.93;2.35;;;22.30;90.30;;;;;;5124111;27;20075;-74
2022/08/28 08:44:16;;;;;;;3.30;1.95;;;23.40;86.70;;;;;;5116428;27;20058;-75
2022/08/28 08:46:51;;;;;;;2.90;1.33;;;24.10;85.30;;;;;;5135828;27;20050;-75
2022/08/28 08:49:27;;;;;;;3.58;1.63;;;24.60;83.80;;;;;;5116838;27;20126;-74
2022/08/28 08:52:06;;;;;;;4.70;1.67;;;24.50;83.90;;;;;;5122733;27;20066;-75
2022/08/28 08:54:31;;;;;;;4.85;2.15;;;23.80;83.10;;;;;;5128634;27;20043;-75
2022/08/28 08:57:01;;;;;;;4.07;1.70;;;22.10;85.70;;;;;;5138044;27;20046;-75
2022/08/28 08:59:30;;;;;;;2.78;1.63;;;21.30;89.00;;;;;;5127010;27;20046;-74
2022/08/28 09:02:05;;;;;;;5.68;1.77;;;20.90;89.80;;;;;;5133153;27;20651;-75
2022/08/28 09:04:46;;;;;;;4.55;1.73;;;21.70;89.40;;;;;;5121817;27;20055;-75
2022/08/28 09:07:18;;;;;;;2.67;1.92;;;22.30;88.40;;;;;;5137800;27;20047;-75
2022/08/28 09:09:48;;;;;;;3.85;1.60;;;23.60;88.70;;;;;;5132950;27;20114;-76
2022/08/28 09:12:21;;;;;;;5.80;2.03;;;23.90;85.60;;;;;;5136385;27;20046;-74
2022/08/28 09:15:08;;;;;;;5.00;1.58;;;23.80;85.70;;;;;;5129934;27;20045;-74
2022/08/28 09:17:49;;;;;;;3.28;1.60;;;24.70;84.30;;;;;;5129928;27;20610;-76
2022/08/28 09:20:22;;;;;;;2.33;1.58;;;23.80;84.20;;;;;;5130171;27;20127;-76
2022/08/28 09:22:48;;;;;;;4.90;1.90;;;22.30;86.30;;;;;;5133843;27;20167;-77
2022/08/28 09:25:48;;;;;;;5.32;2.13;;;22.60;87.80;;;;;;5117828;27;20085;-74
2022/08/28 09:28:20;;;;;;;3.35;1.42;;;23.10;87.20;;;;;;5123576;27;20055;-73
2022/08/28 09:30:55;;;;;;;4.07;1.77;;;24.20;87.20;;;;;;5127429;27;20153;-73
2022/08/28 09:33:34;;;;;;;5.70;1.80;;;24.60;84.70;;;;;;5121790;27;20038;-75
2022/08/28 09:36:35;;;;;;;5.57;1.88;;;24.60;83.00;;;;;;5110592;27;20895;-75
2022/08/28 09:39:16;;;;;;;4.97;1.95;;;23.10;83.20;;;;;;5116985;27;20047;-75
2022/08/28 09:45:12;;;;;;;4.83;2.20;;;21.50;85.80;;;;;;5128548;27;21273;-74
2022/08/28 09:48:02;;;;;;;2.42;1.63;;;22.00;84.70;;;;;;5123204;27;20055;-75
2022/08/28 09:50:34;;;;;;;3.70;2.22;;;21.60;84.60;;;;;;5113518;27;20086;-75
2022/08/28 09:53:21;;;;;;;3.97;1.77;;;22.20;85.20;;;;;;5125458;27;20042;-74
2022/08/28 09:56:07;;;;;;;3.28;1.67;;;23.60;83.20;;;;;;5126765;27;20043;-73
2022/08/28 09:58:44;;;;;;;3.10;1.63;;;24.50;80.90;;;;;;5124781;27;20058;-75
2022/08/28 10:01:29;;;;;;;3.10;1.90;;;24.00;80.80;;;;;;5136655;27;20155;-75
2022/08/28 10:04:04;;;;;;;4.38;2.00;;;22.40;81.90;;;;;;5120621;27;20482;-75
2022/08/28 10:06:34;;;;;;;5.63;1.85;;;22.20;84.90;;;;;;5136044;27;20051;-75
2022/08/28 10:09:24;;;;;;;3.65;1.83;;;22.20;85.30;;;;;;5137900;27;20726;-75
2022/08/28 10:11:59;;;;;;;4.57;1.98;;;23.10;84.40;;;;;;5117899;27;20106;-73
2022/08/28 10:14:42;;;;;;;2.35;1.48;;;23.50;82.20;;;;;;5126921;27;20038;-75
2022/08/28 10:17:07;;;;;;;;;;;23.60;83.60;;;;;;5139629;27;20121;-74
2022/08/28 10:19:51;;;;;;;4.55;1.75;;;23.00;82.10;;;;;;5135219;27;20270;-73
2022/08/28 10:22:42;;;;;;;2.17;1.23;;;22.70;83.00;;;;;;5096303;27;20062;-74
2022/08/28 10:25:41;;;;;;;6.00;2.42;;;23.60;82.10;;;;;;5137990;27;20451;-73
2022/08/28 10:28:27;;;;;;;4.45;1.98;;;23.70;81.50;;;;;;5124975;27;20047;-74
2022/08/28 10:31:18;;;;;;;2.33;1.67;;;23.50;82.10;;;;;;5139111;27;20184;-74
2022/08/28 10:34:05;;;;;;;5.18;1.77;;;23.00;84.30;;;;;;5128331;27;20046;-75
2022/08/28 10:36:34;;;;;;;4.88;1.92;;;22.40;84.40;;;;;;5135329;27;20932;-74
2022/08/28 10:39:17;;;;;;;6.57;1.98;;;21.90;85.70;;;;;;5136106;27;20510;-74
2022/08/28 10:41:51;;;;;;;3.03;1.92;;;22.60;85.30;;;;;;5115680;27;20051;-74
2022/08/28 10:44:22;;;;;;;6.22;1.83;;;23.50;83.70;;;;;;5131045;27;20043;-74
2022/08/28 10:46:57;;;;;;;3.65;1.50;;;23.70;82.70;;;;;;5115777;27;20058;-73
2022/08/28 10:49:35;;;;;;;7.00;2.25;;;23.10;83.10;;;;;;5134651;27;20046;-73
2022/08/28 10:52:07;;;;;;;9.02;2.00;;;22.50;82.90;;;;;;5125250;27;20039;-75
2022/08/28 10:54:48;;;;;;;2.40;1.55;;;21.80;84.90;;;;;;5131059;27;20851;-75
2022/08/28 10:57:17;;;;;;;4.97;1.63;;;21.70;84.80;;;;;;5132412;27;20050;-73
2022/08/28 10:59:46;;;;;;;2.88;1.63;;;21.50;82.70;;;;;;5125620;27;20051;-73
2022/08/28 11:02:15;;;;;;;3.97;1.98;;;21.40;82.30;;;;;;5132438;27;20534;-73
2022/08/28 11:04:41;;;;;;;8.23;1.77;;;21.10;82.10;;;;;;5135757;27;20047;-73
2022/08/28 11:07:13;;;;;;;2.92;2.00;;;21.20;82.70;;;;;;5132122;27;20092;-75
2022/08/28 11:09:44;;;;;;;4.22;2.17;;;21.20;83.40;;;;;;5140417;27;20054;-74
2022/08/28 11:12:16;;;;;;;3.42;1.85;;;21.60;83.50;;;;;;5127402;27;20054;-75
2022/08/28 11:14:44;;;;;;;2.90;1.70;;;21.70;82.60;;;;;;5134893;27;20074;-74
2022/08/28 11:17:29;;;;;;;4.55;1.55;;;21.80;82.60;;;;;;5122461;27;20046;-74
2022/08/28 11:20:26;;;;;;;6.88;2.47;;;21.90;81.40;;;;;;5127224;27;20114;-73
2022/08/28 11:22:51;;;;;;;5.90;2.10;;;21.90;82.80;;;;;;5133446;27;20043;-74
2022/08/28 11:25:32;;;;;;;4.20;1.35;;;21.50;81.90;;;;;;5136021;27;20054;-74
2022/08/28 11:28:14;;;;;;;5.68;2.33;;;21.40;82.00;;;;;;5123380;27;20047;-74
2022/08/28 11:30:41;;;;;;;3.70;1.77;;;21.30;83.60;;;;;;5128483;27;20512;-74
2022/08/28 11:33:29;;;;;;;5.60;2.25;;;21.30;82.90;;;;;;5138151;27;20065;-73
2022/08/28 11:35:55;;;;;;;3.33;1.92;;;21.40;82.60;;;;;;5140578;27;20053;-74
2022/08/28 11:38:40;;;;;;;6.47;1.98;;;21.60;83.00;;;;;;5126721;27;20074;-74
2022/08/28 11:41:12;;;;;;;4.85;2.30;;;21.60;84.00;;;;;;5137437;27;20088;-74
2022/08/28 11:43:43;;;;;;;3.85;2.90;;;21.40;83.90;;;;;;5099623;27;20065;-75
2022/08/28 11:46:31;;;;;;;6.07;2.10;;;21.10;84.50;;;;;;5133750;27;20098;-73
2022/08/28 11:49:04;;;;;;;4.50;2.00;;;20.80;83.60;;;;;;5120229;27;20085;-72
2022/08/28 11:51:54;;;;;;;6.80;2.33;;;20.80;84.30;;;;;;5125556;27;20054;-73
2022/08/28 11:54:44;;;;;;;3.53;1.70;;;21.10;82.90;;;;;;5127972;27;20567;-74
2022/08/28 11:57:19;;;;;;;3.63;1.45;;;21.30;82.50;;;;;;5136637;27;20116;-72
2022/08/28 12:00:07;;;;;;;4.15;1.70;;;21.40;83.30;;;;;;5125772;27;20042;-77
2022/08/28 12:02:44;;;;;;;4.20;1.50;;;21.70;84.60;;;;;;5133817;27;20039;-76
2022/08/28 12:05:16;;;;;;;4.93;1.70;;;21.50;85.00;;;;;;5128975;27;20054;-75
2022/08/28 12:07:50;;;;;;;4.18;2.05;;;21.40;85.20;;;;;;5120037;27;20046;-73
2022/08/28 12:10:21;;;;;;;4.75;1.90;;;21.20;83.50;;;;;;5125006;27;20047;-74
2022/08/28 12:12:48;;;;;;;4.68;1.67;;;21.10;84.00;;;;;;5123108;27;20120;-74
2022/08/28 12:15:26;;;;;;;3.75;1.80;;;21.00;83.60;;;;;;5133640;27;20051;-75
2022/08/28 12:17:54;;;;;;;2.10;1.27;;;21.30;82.40;;;;;;5138839;27;20042;-72
2022/08/28 12:20:38;;;;;;;3.05;2.20;;;21.30;82.30;;;;;;5137780;27;20126;-73
2022/08/28 12:23:22;;;;;;;3.22;1.85;;;21.30;81.50;;;;;;5131945;27;20049;-73
2022/08/28 12:25:57;;;;;;;2.40;1.77;;;21.30;80.50;;;;;;5136227;27;20078;-72
2022/08/28 12:28:44;;;;;;;4.15;1.63;;;21.40;81.20;;;;;;5125375;27;20046;-73
2022/08/28 12:32:09;;;;;;;5.13;1.90;;;21.40;81.40;;;;;;5104133;27;20047;-72
2022/08/28 12:34:12;;;;;;;7.72;2.05;;;21.20;82.20;;;;;;5128242;27;20115;-74
2022/08/28 12:36:38;;;;;;;4.50;1.70;;;21.00;82.90;;;;;;5123886;27;20043;-74
2022/08/28 12:39:03;;;;;;;3.78;1.90;;;21.00;84.30;;;;;;5128093;27;20384;-74
2022/08/28 12:41:30;;;;;;;5.25;2.60;;;21.30;84.70;;;;;;5126888;27;20053;-73
2022/08/28 12:43:58;;;;;;;3.33;1.52;;;21.40;85.00;;;;;;5124543;27;20043;-73
2022/08/28 12:46:36;;;;;;;5.93;1.75;;;21.40;83.90;;;;;;5123432;27;20443;-73
2022/08/28 12:49:11;;;;;;;2.40;1.70;;;21.40;84.40;;;;;;5117666;27;20051;-74
2022/08/28 12:51:37;;;;;;;3.20;1.98;;;21.40;82.00;;;;;;5139103;27;20154;-72
2022/08/28 12:54:05;;;;;;;5.07;1.58;;;21.50;83.00;;;;;;5130916;27;20042;-74
2022/08/28 12:56:35;;;;;;;4.50;1.92;;;21.70;84.00;;;;;;5135394;27;20058;-74
2022/08/28 12:59:23;;;;;;;3.10;1.80;;;21.60;84.90;;;;;;5126853;27;20053;-76
2022/08/28 13:01:49;;;;;;;6.80;2.30;;;21.30;85.30;;;;;;5115038;27;20853;-80
2022/08/28 13:04:29;;;;;;;6.10;2.03;;;20.90;85.70;;;;;;5134170;27;20045;-79
2022/08/28 13:07:08;;;;;;;4.03;2.00;;;20.80;86.90;;;;;;5134874;27;20073;-80
2022/08/28 13:09:34;;;;;;;3.95;1.80;;;20.90;87.00;;;;;;5117537;27;20034;-82
2022/08/28 13:11:59;;;;;;;3.40;1.60;;;21.00;86.50;;;;;;5126753;27;20047;-81
2022/08/28 13:14:45;;;;;;;3.75;1.55;;;21.20;86.00;;;;;;5111879;28;20626;-75